Time;durP1;ratioP1;P1;durP2;ratioP2;P2;SDS_P1;SDS_P2;PMS_P1;PMS_P2;Temp;Humidity;BMP_temperature;BMP_pressure;BME280_temperature;BME280_humidity;BME280_pressure;Samples;Min_cycle;Max_cycle;Signal;HPM_P1;HPM_P2
2023/05/12 00:02:15;;;;;;;8.75;6.90;;;;;;;14.87;79.87;101502.41;5013950;28;20037;-93
2023/05/12 00:04:40;;;;;;;8.07;6.57;;;;;;;14.68;78.76;101497.09;5030676;28;20025;-93
2023/05/12 00:07:06;;;;;;;9.25;5.93;;;;;;;14.66;78.49;101506.97;5029731;28;20036;-94
2023/05/12 00:09:31;;;;;;;7.63;5.25;;;;;;;14.57;79.06;101510.03;5033053;28;20033;-92
2023/05/12 00:11:57;;;;;;;8.77;6.03;;;;;;;14.53;79.10;101508.44;5029739;28;20464;-93
2023/05/12 00:14:22;;;;;;;9.60;6.93;;;;;;;14.51;79.16;101510.34;5036152;28;20395;-94
2023/05/12 00:16:50;;;;;;;7.60;5.90;;;;;;;14.49;79.70;101504.19;5028769;28;20040;-94
2023/05/12 00:19:17;;;;;;;9.85;6.25;;;;;;;14.43;79.28;101502.66;5027772;28;20021;-94
2023/05/12 00:21:42;;;;;;;8.73;6.35;;;;;;;14.44;79.59;101500.84;5034072;28;20018;-92
2023/05/12 00:24:08;;;;;;;7.85;5.93;;;;;;;14.44;79.48;101504.38;5030892;28;20028;-93
2023/05/12 00:26:33;;;;;;;10.80;7.05;;;;;;;14.38;79.47;101495.81;5026107;28;20040;-92
2023/05/12 00:28:58;;;;;;;9.55;6.30;;;;;;;14.39;79.80;101494.88;5036010;28;20427;-93
2023/05/12 00:31:23;;;;;;;10.98;6.53;;;;;;;14.36;80.14;101487.94;5030674;28;20112;-91
2023/05/12 00:33:49;;;;;;;9.80;6.20;;;;;;;14.51;79.44;101502.34;5029334;28;20441;-92
2023/05/12 00:36:14;;;;;;;8.88;6.30;;;;;;;14.45;79.73;101489.28;5024400;28;20064;-91
2023/05/12 00:38:40;;;;;;;10.05;6.15;;;;;;;14.50;79.95;101495.28;5030036;28;20492;-92
2023/05/12 00:41:05;;;;;;;8.52;5.53;;;;;;;14.48;79.36;101502.47;5010194;28;20035;-93
2023/05/12 00:43:32;;;;;;;10.90;6.97;;;;;;;14.42;79.49;101497.41;5027949;28;20044;-93
2023/05/12 00:45:59;;;;;;;8.50;6.07;;;;;;;14.37;79.68;101491.44;5026439;28;20029;-93
2023/05/12 00:48:24;;;;;;;8.00;6.32;;;;;;;14.31;79.68;101487.25;5031284;28;20128;-93
2023/05/12 00:50:50;;;;;;;9.40;6.53;;;;;;;14.26;79.53;101497.22;5009302;28;20113;-94
2023/05/12 00:53:15;;;;;;;8.63;6.85;;;;;;;14.22;80.04;101491.22;5014207;28;20193;-94
2023/05/12 00:55:41;;;;;;;7.82;6.50;;;;;;;14.23;79.82;101492.94;5014659;28;20576;-94
2023/05/12 00:58:06;;;;;;;8.57;7.05;;;;;;;14.17;79.96;101490.53;5005762;28;20026;-94
2023/05/12 01:00:32;;;;;;;9.35;7.38;;;;;;;14.11;80.10;101480.16;4999384;28;20046;-92
2023/05/12 01:02:57;;;;;;;10.75;7.40;;;;;;;14.17;79.83;101487.00;5019583;28;20018;-94
2023/05/12 01:05:28;;;;;;;9.20;7.15;;;;;;;14.16;80.19;101479.97;5006989;28;20129;-94
2023/05/12 01:07:55;;;;;;;9.03;7.77;;;;;;;14.21;80.39;101485.94;5015325;28;20107;-94
2023/05/12 01:10:20;;;;;;;9.20;7.82;;;;;;;14.22;79.85;101480.56;5009926;28;20030;-93
2023/05/12 01:12:46;;;;;;;8.65;6.93;;;;;;;14.22;79.99;101482.34;5011059;28;20492;-92
2023/05/12 01:15:12;;;;;;;11.07;7.80;;;;;;;14.22;80.00;101482.34;5008386;28;20472;-93
2023/05/12 01:17:41;;;;;;;11.60;7.57;;;;;;;14.14;79.88;101479.19;5012559;28;20022;-93
2023/05/12 01:20:10;;;;;;;10.82;7.65;;;;;;;14.15;79.84;101475.59;5019609;28;20021;-93
2023/05/12 01:22:36;;;;;;;10.68;7.35;;;;;;;14.17;79.87;101477.22;5013759;28;20030;-92
2023/05/12 01:25:08;;;;;;;10.93;8.00;;;;;;;14.15;80.26;101467.59;5023520;28;20034;-92
2023/05/12 01:27:34;;;;;;;11.55;7.82;;;;;;;14.17;79.82;101474.56;5012206;28;20056;-93
2023/05/12 01:30:01;;;;;;;11.77;8.57;;;;;;;14.19;80.20;101471.84;5009554;28;20034;-93
2023/05/12 01:32:27;;;;;;;10.95;8.35;;;;;;;14.11;80.18;101460.69;5031596;28;20056;-93
2023/05/12 01:34:52;;;;;;;11.52;8.95;;;;;;;14.11;80.10;101466.00;5026135;28;20117;-92
2023/05/12 01:37:18;;;;;;;11.77;7.95;;;;;;;14.12;80.61;101463.28;5004837;28;20072;-91
2023/05/12 01:39:43;;;;;;;11.07;8.05;;;;;;;14.03;81.34;101474.31;5027465;28;20385;-93
2023/05/12 01:42:09;;;;;;;11.43;8.70;;;;;;;13.93;81.54;101457.06;5015136;28;20029;-92
2023/05/12 01:44:34;;;;;;;11.65;8.70;;;;;;;14.01;81.78;101474.41;5013562;28;20034;-93
2023/05/12 01:47:00;;;;;;;10.90;8.82;;;;;;;14.02;81.28;101462.81;5027185;28;20364;-94
2023/05/12 01:49:26;;;;;;;12.15;8.82;;;;;;;14.01;81.86;101471.75;5033735;28;20044;-93
2023/05/12 01:51:51;;;;;;;13.45;9.32;;;;;;;13.93;81.93;101467.69;5015892;28;20021;-93
2023/05/12 01:54:16;;;;;;;7.65;6.53;;;;;;;13.85;81.83;101452.09;5027733;28;20489;-92
2023/05/12 01:56:42;;;;;;;8.93;6.60;;;;;;;13.82;81.58;101457.53;5030555;28;20052;-91
2023/05/12 01:59:07;;;;;;;7.97;6.50;;;;;;;13.77;81.57;101452.41;5035367;28;20079;-93
2023/05/12 02:01:32;;;;;;;8.18;5.90;;;;;;;13.79;81.21;101466.50;5030572;28;20074;-92
2023/05/12 02:03:58;;;;;;;8.52;6.20;;;;;;;13.74;81.80;101449.03;5032078;28;20024;-92
2023/05/12 02:06:24;;;;;;;8.88;5.93;;;;;;;13.71;81.63;101447.38;5014330;28;20492;-92
2023/05/12 02:08:50;;;;;;;6.38;5.53;;;;;;;13.69;81.84;101446.56;5033503;28;20553;-93
2023/05/12 02:11:15;;;;;;;7.15;6.03;;;;;;;13.67;82.27;101443.13;5036498;28;20033;-92
2023/05/12 02:13:43;;;;;;;7.68;6.00;;;;;;;13.68;81.90;101446.66;5013009;28;20029;-93
2023/05/12 02:16:08;;;;;;;8.00;5.85;;;;;;;13.62;82.62;101447.78;5034294;28;20574;-92
2023/05/12 02:18:34;;;;;;;7.13;6.00;;;;;;;13.62;82.70;101447.78;5036365;28;20272;-92
2023/05/12 02:20:59;;;;;;;7.47;5.88;;;;;;;13.63;82.71;101443.34;5034881;28;20112;-93
2023/05/12 02:23:24;;;;;;;7.60;6.30;;;;;;;13.66;82.40;101448.50;5030689;28;20079;-93
2023/05/12 02:25:49;;;;;;;8.05;6.57;;;;;;;13.62;82.48;101439.81;5017809;28;20219;-93
2023/05/12 02:28:15;;;;;;;6.97;5.38;;;;;;;13.64;82.34;101440.59;5018905;28;20029;-93
2023/05/12 02:30:48;;;;;;;7.50;5.15;;;;;;;13.65;83.13;101450.28;5034855;28;20479;-91
2023/05/12 02:33:17;;;;;;;7.15;5.25;;;;;;;13.57;82.80;101430.28;5033201;28;20035;-91
2023/05/12 02:35:44;;;;;;;5.90;4.70;;;;;;;13.52;82.82;101427.81;5032096;28;20373;-92
2023/05/12 02:38:10;;;;;;;5.70;4.38;;;;;;;13.56;82.45;101426.78;5018662;28;20474;-93
2023/05/12 02:40:35;;;;;;;5.40;4.05;;;;;;;13.55;82.83;101434.81;5033632;28;20029;-93
2023/05/12 02:43:00;;;;;;;6.00;4.45;;;;;;;13.52;83.02;101431.38;5037116;28;20491;-92
2023/05/12 02:45:26;;;;;;;4.78;4.18;;;;;;;13.53;83.24;101437.56;5013051;28;21542;-94
2023/05/12 02:47:51;;;;;;;5.63;4.07;;;;;;;13.51;83.13;101432.28;5038351;28;20033;-92
2023/05/12 02:50:16;;;;;;;6.38;4.43;;;;;;;13.51;82.83;101423.44;5032583;28;20087;-92
2023/05/12 02:52:42;;;;;;;8.13;3.90;;;;;;;13.49;83.44;101412.03;5032050;28;20655;-91
2023/05/12 02:55:07;;;;;;;6.10;4.07;;;;;;;13.48;83.22;101420.94;5012936;28;20541;-90
2023/05/12 02:57:33;;;;;;;5.32;3.90;;;;;;;13.40;83.66;101409.78;5017640;28;20062;-90
2023/05/12 03:00:04;;;;;;;3.80;3.30;;;;;;;13.43;83.38;101418.50;5033205;28;20435;-92
2023/05/12 03:02:30;;;;;;;4.18;3.25;;;;;;;13.43;83.42;101421.16;5029123;28;20376;-93
2023/05/12 03:04:55;;;;;;;4.60;3.42;;;;;;;13.41;83.54;101411.50;5029423;28;20026;-92
2023/05/12 03:07:21;;;;;;;4.28;3.35;;;;;;;13.40;83.45;101399.16;5010725;28;20407;-93
2023/05/12 03:09:47;;;;;;;4.38;2.78;;;;;;;13.43;83.55;101406.97;5019064;28;20124;-91
2023/05/12 03:12:12;;;;;;;3.90;3.20;;;;;;;13.47;83.02;101400.59;5028853;28;20427;-92
2023/05/12 03:14:37;;;;;;;4.40;3.22;;;;;;;13.45;83.03;101394.50;5028848;28;20380;-92
2023/05/12 03:17:03;;;;;;;3.75;2.88;;;;;;;13.44;82.99;101395.44;5029092;28;20180;-93
2023/05/12 03:19:28;;;;;;;4.32;2.72;;;;;;;13.49;83.26;101396.09;5030999;28;20027;-93
2023/05/12 03:21:53;;;;;;;3.85;3.10;;;;;;;13.48;83.72;101400.56;5032443;28;20025;-93
2023/05/12 03:24:19;;;;;;;3.75;3.20;;;;;;;13.51;83.34;101405.72;5031646;28;20790;-93
2023/05/12 03:26:44;;;;;;;4.82;3.40;;;;;;;13.50;83.78;101397.81;5014848;28;20023;-92
2023/05/12 03:29:09;;;;;;;5.07;3.55;;;;;;;13.45;83.31;101389.19;5030718;28;20116;-90
2023/05/12 03:31:35;;;;;;;7.50;3.80;;;;;;;13.41;84.07;101377.84;5030391;28;20098;-91
2023/05/12 03:34:00;;;;;;;5.43;3.58;;;;;;;13.45;83.56;101387.41;5028634;28;20018;-93
2023/05/12 03:36:26;;;;;;;7.03;3.72;;;;;;;13.49;83.98;101386.34;5030551;28;20053;-94
2023/05/12 03:38:51;;;;;;;5.50;4.25;;;;;;;13.48;83.78;101383.75;5035222;28;20473;-94
2023/05/12 03:41:16;;;;;;;6.55;4.35;;;;;;;13.46;83.84;101382.94;5015698;28;20111;-93
2023/05/12 03:43:41;;;;;;;6.85;4.88;;;;;;;13.34;84.58;101371.06;5033413;28;20404;-94
2023/05/12 03:46:07;;;;;;;6.93;4.80;;;;;;;13.41;84.42;101374.31;5011194;28;20033;-90
2023/05/12 03:48:32;;;;;;;8.90;5.32;;;;;;;13.38;84.18;101371.78;5010887;28;20496;-94
2023/05/12 03:50:57;;;;;;;8.02;5.13;;;;;;;13.36;84.37;101365.69;4997142;28;20037;-93
2023/05/12 03:53:23;;;;;;;9.13;5.60;;;;;;;13.34;84.42;101372.88;5013302;28;20037;-92
2023/05/12 03:55:48;;;;;;;8.43;6.28;;;;;;;13.34;84.37;101370.22;4996433;28;20038;-94
2023/05/12 03:58:14;;;;;;;9.32;5.70;;;;;;;13.30;84.88;101366.81;4995750;28;20029;-94
2023/05/12 04:00:39;;;;;;;11.63;6.57;;;;;;;13.34;85.15;101371.06;4994412;28;20037;-93
2023/05/12 04:03:04;;;;;;;12.02;6.88;;;;;;;13.36;84.65;101376.31;5001256;28;20041;-92
2023/05/12 04:05:30;;;;;;;9.98;6.28;;;;;;;13.31;85.06;101370.34;5013329;28;20025;-93
2023/05/12 04:07:55;;;;;;;11.50;7.38;;;;;;;13.28;85.36;101366.88;5011183;28;20100;-94
2023/05/12 04:10:21;;;;;;;12.20;7.45;;;;;;;13.35;85.34;101372.78;4994999;28;20029;-92
2023/05/12 04:12:46;;;;;;;10.70;6.93;;;;;;;13.37;85.26;101370.91;5014584;28;20705;-93
2023/05/12 04:15:13;;;;;;;13.80;8.27;;;;;;;13.40;85.51;101377.91;4998765;28;20104;-94
2023/05/12 04:17:39;;;;;;;14.65;7.70;;;;;;;13.35;85.90;101369.28;4994048;28;20029;-92
2023/05/12 04:20:05;;;;;;;11.95;7.20;;;;;;;13.39;85.80;101376.19;5017182;28;20211;-93
2023/05/12 04:22:30;;;;;;;12.60;8.07;;;;;;;13.33;85.58;101368.47;4984680;28;20030;-93
2023/05/12 04:24:56;;;;;;;14.23;8.27;;;;;;;13.32;85.94;101369.41;4998430;28;20118;-93
2023/05/12 04:27:21;;;;;;;17.10;9.63;;;;;;;13.34;85.62;101372.88;4995799;28;20563;-93
2023/05/12 04:29:46;;;;;;;17.63;9.85;;;;;;;13.32;86.14;101375.56;5016089;28;20074;-92
2023/05/12 04:32:11;;;;;;;17.67;9.50;;;;;;;13.36;86.14;101373.66;4993539;28;20036;-93
2023/05/12 04:34:37;;;;;;;20.63;10.70;;;;;;;13.34;86.09;101372.88;5014609;28;20030;-92
2023/05/12 04:37:02;;;;;;;19.50;10.50;;;;;;;13.33;86.24;101363.16;4994226;28;20068;-91
2023/05/12 04:39:27;;;;;;;20.05;11.00;;;;;;;13.39;86.50;101377.06;5009830;28;20392;-93
2023/05/12 04:41:53;;;;;;;21.50;10.43;;;;;;;13.35;86.63;101362.16;5010062;28;20030;-94
2023/05/12 04:44:18;;;;;;;23.65;12.05;;;;;;;13.40;86.37;101372.59;4999833;28;20025;-93
2023/05/12 04:46:43;;;;;;;22.50;11.93;;;;;;;13.41;86.63;101375.19;5003279;28;20041;-93
2023/05/12 04:49:09;;;;;;;26.25;13.05;;;;;;;13.35;86.82;101363.97;5024691;28;20048;-93
2023/05/12 04:51:40;;;;;;;26.00;12.52;;;;;;;13.33;86.63;101365.81;5028977;28;20562;-91
2023/05/12 04:54:08;;;;;;;24.10;13.15;;;;;;;13.39;87.12;101378.84;5032783;28;20148;-93
2023/05/12 04:56:33;;;;;;;24.88;12.70;;;;;;;13.42;86.61;101378.69;5030793;28;20033;-93
2023/05/12 04:58:59;;;;;;;30.05;14.77;;;;;;;13.44;86.86;101375.06;5033697;28;20021;-93
2023/05/12 05:01:24;;;;;;;25.02;14.00;;;;;;;13.46;87.00;101385.59;5019927;28;20028;-92
2023/05/12 05:03:49;;;;;;;27.55;14.48;;;;;;;13.47;86.69;101374.03;5024956;28;20025;-92
2023/05/12 05:06:15;;;;;;;30.83;15.23;;;;;;;13.50;87.33;101395.16;5026896;28;20018;-92
2023/05/12 05:08:40;;;;;;;32.45;16.85;;;;;;;13.51;87.32;101394.22;5019254;28;20033;-90
2023/05/12 05:11:05;;;;;;;34.28;16.27;;;;;;;13.56;87.27;101386.91;5036221;28;20029;-93
2023/05/12 05:13:31;;;;;;;30.13;16.00;;;;;;;13.59;87.29;101384.13;5013127;28;20037;-92
2023/05/12 05:15:56;;;;;;;28.63;15.68;;;;;;;13.62;87.11;101386.66;5040169;28;20025;-92
2023/05/12 05:18:21;;;;;;;32.90;16.02;;;;;;;13.67;86.82;101397.97;5036517;28;20033;-92
2023/05/12 05:20:46;;;;;;;28.88;15.50;;;;;;;13.59;87.19;101380.63;5036038;28;20037;-93
2023/05/12 05:23:12;;;;;;;29.02;15.35;;;;;;;13.68;87.17;101394.38;5034539;28;20029;-91
2023/05/12 05:25:38;;;;;;;31.50;16.70;;;;;;;13.72;87.11;101403.06;5034157;28;20060;-93
2023/05/12 05:28:03;;;;;;;31.42;16.08;;;;;;;13.73;87.56;101399.47;5034539;28;20055;-92
2023/05/12 05:30:28;;;;;;;31.23;17.08;;;;;;;13.71;87.36;101393.38;5035406;28;20470;-93
2023/05/12 05:32:54;;;;;;;29.63;17.02;;;;;;;13.77;87.30;101398.41;5036498;28;20559;-93
2023/05/12 05:35:19;;;;;;;30.15;16.90;;;;;;;13.82;86.91;101400.88;5019478;28;20076;-93
2023/05/12 05:37:44;;;;;;;35.08;17.63;;;;;;;13.87;87.35;101409.50;5016350;28;20051;-92
2023/05/12 05:40:10;;;;;;;37.95;18.25;;;;;;;13.91;87.68;101419.91;5023716;28;20017;-93
2023/05/12 05:42:35;;;;;;;33.90;17.98;;;;;;;13.98;87.80;101424.00;5018692;28;20016;-92
2023/05/12 05:45:01;;;;;;;32.85;18.27;;;;;;;14.04;87.19;101413.13;5014406;28;20604;-93
2023/05/12 05:47:27;;;;;;;34.22;18.92;;;;;;;14.14;86.66;101431.31;5016653;28;20024;-91
2023/05/12 05:49:52;;;;;;;34.60;18.95;;;;;;;14.14;87.09;101426.84;5037335;28;20037;-94
2023/05/12 05:52:18;;;;;;;33.47;18.15;;;;;;;14.17;86.75;101418.72;5029649;28;20040;-93
2023/05/12 05:54:43;;;;;;;33.05;17.27;;;;;;;14.18;87.13;101427.59;5028217;28;20112;-91
2023/05/12 05:57:08;;;;;;;33.72;18.30;;;;;;;14.27;87.06;101430.69;5016091;28;20056;-92
2023/05/12 05:59:33;;;;;;;34.80;18.77;;;;;;;14.24;87.19;101425.50;5034733;28;20033;-90
2023/05/12 06:01:59;;;;;;;33.25;17.83;;;;;;;14.27;87.32;101433.34;5015315;28;20514;-93
2023/05/12 06:04:24;;;;;;;34.85;18.67;;;;;;;14.33;87.23;101436.66;5032125;28;20024;-90
2023/05/12 06:06:49;;;;;;;32.10;17.80;;;;;;;14.37;87.02;101440.91;5034876;28;20036;-91
2023/05/12 06:09:15;;;;;;;38.08;19.15;;;;;;;14.53;86.56;101441.94;5006650;28;20021;-93
2023/05/12 06:11:40;;;;;;;32.83;18.45;;;;;;;14.56;86.54;101449.78;5035871;28;20033;-92
2023/05/12 06:14:06;;;;;;;32.72;18.45;;;;;;;14.62;86.54;101454.81;5015505;28;20503;-94
2023/05/12 06:16:31;;;;;;;36.22;19.58;;;;;;;14.65;86.37;101448.50;5032727;28;20033;-93
2023/05/12 06:18:56;;;;;;;32.80;18.20;;;;;;;14.77;86.15;101456.72;5035916;28;20025;-93
2023/05/12 06:21:22;;;;;;;34.90;19.63;;;;;;;14.82;86.14;101458.31;5035495;28;20022;-93
2023/05/12 06:23:47;;;;;;;36.20;20.30;;;;;;;14.91;85.59;101468.53;5032978;28;20021;-92
2023/05/12 06:26:12;;;;;;;33.78;19.13;;;;;;;14.91;85.41;101461.38;5017264;28;20030;-93
2023/05/12 06:28:37;;;;;;;33.45;19.50;;;;;;;15.01;85.45;101473.34;5019485;28;20052;-91
2023/05/12 06:31:07;;;;;;;32.55;19.23;;;;;;;15.09;85.72;101486.28;5032198;28;20550;-93
2023/05/12 06:33:32;;;;;;;31.98;19.50;;;;;;;15.15;85.21;101479.78;5033438;28;20464;-94
2023/05/12 06:35:58;;;;;;;34.05;20.73;;;;;;;15.24;84.24;101489.97;5033453;28;20028;-93
2023/05/12 06:38:23;;;;;;;32.25;20.40;;;;;;;15.29;85.43;101477.28;5030827;28;20029;-93
2023/05/12 06:40:48;;;;;;;30.88;19.05;;;;;;;15.41;84.71;101491.81;5012498;28;20503;-93
2023/05/12 06:43:14;;;;;;;31.77;19.75;;;;;;;15.47;83.92;101487.03;5029300;28;20036;-93
2023/05/12 06:45:39;;;;;;;28.20;17.92;;;;;;;15.61;83.60;101491.66;5015748;28;20037;-93
2023/05/12 06:48:04;;;;;;;27.40;17.63;;;;;;;15.69;83.19;101497.50;5032251;28;20033;-92
2023/05/12 06:50:30;;;;;;;26.95;17.75;;;;;;;15.75;82.11;101494.53;5027121;28;20040;-93
2023/05/12 06:52:55;;;;;;;26.98;17.85;;;;;;;15.84;82.50;101506.53;5038701;28;20028;-93
2023/05/12 06:55:21;;;;;;;24.95;17.27;;;;;;;15.97;81.98;101498.75;5016670;28;20063;-93
2023/05/12 06:57:46;;;;;;;23.60;16.77;;;;;;;16.09;81.00;101506.13;5029498;28;20021;-93
2023/05/12 07:00:12;;;;;;;22.42;17.40;;;;;;;16.17;80.26;101511.03;5028805;28;20032;-93
2023/05/12 07:02:38;;;;;;;24.45;18.20;;;;;;;16.22;79.44;101511.66;5014714;28;20033;-94
2023/05/12 07:05:03;;;;;;;24.10;16.67;;;;;;;16.23;78.76;101516.06;5016828;28;20026;-93
2023/05/12 07:07:29;;;;;;;22.75;17.15;;;;;;;16.28;79.24;101504.22;5011737;28;20230;-93
2023/05/12 07:09:55;;;;;;;21.35;16.42;;;;;;;16.30;79.52;101510.31;5026429;28;20029;-92
2023/05/12 07:12:21;;;;;;;23.33;17.17;;;;;;;16.28;78.23;101514.03;5030505;28;20537;-93
2023/05/12 07:14:46;;;;;;;25.50;18.35;;;;;;;16.26;78.34;101514.09;5024134;28;20041;-92
2023/05/12 07:17:12;;;;;;;21.75;17.27;;;;;;;16.37;78.08;101510.88;5024207;28;20476;-93
2023/05/12 07:19:38;;;;;;;22.20;16.45;;;;;;;16.60;77.12;101520.28;5011729;28;20067;-92
2023/05/12 07:22:04;;;;;;;22.80;16.27;;;;;;;16.76;77.51;101515.84;5018054;28;20068;-93
2023/05/12 07:24:30;;;;;;;19.50;15.57;;;;;;;16.98;77.42;101504.00;5019015;28;20443;-93
2023/05/12 07:26:55;;;;;;;18.42;13.75;;;;;;;17.25;75.68;101514.91;5031563;28;20025;-92
2023/05/12 07:29:21;;;;;;;14.77;11.65;;;;;;;17.43;74.14;101510.31;5020741;28;20025;-93
2023/05/12 07:31:46;;;;;;;19.30;11.50;;;;;;;17.63;73.15;101514.50;5016578;28;20082;-92
2023/05/12 07:34:12;;;;;;;17.58;11.25;;;;;;;17.85;73.23;101517.63;5029289;28;20021;-92
2023/05/12 07:36:37;;;;;;;13.35;11.13;;;;;;;18.16;73.13;101521.16;5029219;28;20037;-92
2023/05/12 07:39:02;;;;;;;12.82;9.70;;;;;;;18.55;70.86;101515.13;5025173;28;20026;-93
2023/05/12 07:41:28;;;;;;;12.20;10.07;;;;;;;18.85;70.17;101525.78;5036402;28;20021;-94
2023/05/12 07:43:53;;;;;;;11.25;8.73;;;;;;;18.75;68.62;101527.31;5034479;28;20042;-90
2023/05/12 07:46:18;;;;;;;9.93;7.93;;;;;;;18.37;69.23;101538.56;5027787;28;20029;-92
2023/05/12 07:48:43;;;;;;;10.13;8.85;;;;;;;18.20;69.29;101522.69;5033796;28;20042;-93
2023/05/12 07:51:09;;;;;;;8.70;7.80;;;;;;;18.14;70.16;101539.09;5028349;28;20648;-92
2023/05/12 07:53:34;;;;;;;9.35;7.82;;;;;;;18.06;70.40;101537.75;5030136;28;20075;-94
2023/05/12 07:56:00;;;;;;;8.73;7.45;;;;;;;17.89;68.68;101543.25;5009207;28;20029;-93
2023/05/12 07:58:25;;;;;;;8.68;7.78;;;;;;;17.84;69.30;101537.31;5007660;28;20021;-92
2023/05/12 08:00:53;;;;;;;8.18;7.38;;;;;;;18.31;68.36;101546.97;5027757;28;20564;-92
2023/05/12 08:03:18;;;;;;;11.02;7.50;;;;;;;18.92;67.35;101540.47;5001909;28;20109;-93
2023/05/12 08:05:43;;;;;;;7.70;6.90;;;;;;;19.32;66.23;101551.31;5026618;28;20112;-92
2023/05/12 08:08:15;;;;;;;8.02;6.47;;;;;;;19.56;64.91;101546.16;5027328;28;20472;-92
2023/05/12 08:10:43;;;;;;;8.00;7.18;;;;;;;19.77;64.12;101555.47;5023184;28;20532;-93
2023/05/12 08:13:08;;;;;;;9.05;7.07;;;;;;;19.58;63.47;101555.81;5028628;28;20027;-93
2023/05/12 08:15:33;;;;;;;9.20;7.28;;;;;;;19.29;64.29;101543.47;5027751;28;20037;-93
2023/05/12 08:17:59;;;;;;;7.22;6.53;;;;;;;19.45;64.99;101540.66;5011571;28;20018;-93
2023/05/12 08:20:24;;;;;;;8.07;7.28;;;;;;;20.45;61.92;101549.00;5028868;28;20028;-94
2023/05/12 08:22:49;;;;;;;7.03;6.43;;;;;;;21.11;60.93;101555.03;5011358;28;20083;-93
2023/05/12 08:25:15;;;;;;;7.13;5.78;;;;;;;21.55;57.13;101556.31;5031010;28;20380;-93
2023/05/12 08:27:40;;;;;;;7.80;5.70;;;;;;;21.01;59.16;101564.75;5027166;28;20026;-93
2023/05/12 08:30:06;;;;;;;6.45;5.80;;;;;;;20.79;60.04;101557.38;5030258;28;20132;-93
2023/05/12 08:32:31;;;;;;;7.25;5.28;;;;;;;20.68;59.92;101563.53;5039991;28;20037;-90
2023/05/12 08:34:57;;;;;;;6.90;5.32;;;;;;;20.85;59.57;101559.63;5034000;28;20034;-92
2023/05/12 08:37:22;;;;;;;5.80;5.28;;;;;;;21.53;59.53;101555.56;5013007;28;20021;-92
2023/05/12 08:39:47;;;;;;;4.65;4.15;;;;;;;22.15;55.88;101566.97;5036154;28;20030;-92
2023/05/12 08:42:16;;;;;;;4.95;4.43;;;;;;;22.18;53.90;101568.56;5028600;28;20028;-93
2023/05/12 08:44:41;;;;;;;5.13;4.22;;;;;;;21.80;54.14;101572.31;5037467;28;20035;-92
2023/05/12 08:47:07;;;;;;;4.97;4.45;;;;;;;20.94;57.16;101560.78;5023652;28;20026;-93
2023/05/12 08:49:37;;;;;;;4.70;4.05;;;;;;;21.04;57.92;101569.91;5029000;28;20046;-93
2023/05/12 08:52:04;;;;;;;6.03;3.80;;;;;;;21.47;54.95;101567.66;5030242;28;20044;-94
2023/05/12 08:54:29;;;;;;;4.45;3.92;;;;;;;22.11;53.73;101568.19;5032736;28;20052;-91
2023/05/12 08:56:56;;;;;;;6.28;4.20;;;;;;;22.13;55.84;101576.13;5028764;28;20413;-93
2023/05/12 08:59:23;;;;;;;3.75;3.45;;;;;;;22.32;52.87;101578.25;5027997;28;20404;-93
2023/05/12 09:01:49;;;;;;;5.20;3.47;;;;;;;23.42;51.59;101578.38;5022630;28;20025;-94
2023/05/12 09:04:15;;;;;;;5.32;3.60;;;;;;;23.49;49.68;101576.00;5024547;28;20427;-94
2023/05/12 09:06:42;;;;;;;4.25;3.40;;;;;;;23.47;47.73;101585.25;5023383;28;20034;-93
2023/05/12 09:09:07;;;;;;;5.57;3.40;;;;;;;23.76;48.95;101577.44;5023960;28;20032;-91
2023/05/12 09:11:32;;;;;;;4.28;3.60;;;;;;;23.23;49.88;101585.41;5010452;28;20238;-92
2023/05/12 09:14:08;;;;;;;5.95;3.28;;;;;;;23.72;51.72;101582.22;5007884;28;20615;-93
2023/05/12 09:16:41;;;;;;;3.97;3.17;;;;;;;24.26;48.65;101581.22;5021488;28;20052;-90
2023/05/12 09:19:07;;;;;;;3.58;3.28;;;;;;;24.22;46.87;101581.63;5024592;28;20428;-93
2023/05/12 09:21:33;;;;;;;4.35;2.80;;;;;;;24.34;46.41;101588.66;5011949;28;20029;-92
2023/05/12 09:23:58;;;;;;;3.83;3.10;;;;;;;24.01;48.75;101587.00;5026247;28;20056;-92
2023/05/12 09:26:25;;;;;;;3.30;3.00;;;;;;;23.66;45.87;101583.59;5026865;28;20075;-93
2023/05/12 09:28:53;;;;;;;3.90;2.75;;;;;;;23.86;48.84;101581.06;5025822;28;20037;-92
2023/05/12 09:31:23;;;;;;;2.80;2.60;;;;;;;24.52;47.32;101592.50;5025060;28;20025;-93
2023/05/12 09:33:50;;;;;;;2.88;2.67;;;;;;;24.99;46.03;101568.50;5025506;28;20021;-93
2023/05/12 09:36:20;;;;;;;3.85;2.58;;;;;;;25.27;47.46;101574.16;5011097;28;20029;-92
2023/05/12 09:38:45;;;;;;;3.17;2.75;;;;;;;25.78;46.07;101573.97;5028793;28;20045;-91
2023/05/12 09:41:10;;;;;;;5.13;2.53;;;;;;;25.81;42.45;101575.53;5031271;28;20029;-92
2023/05/12 09:43:36;;;;;;;3.30;2.38;;;;;;;25.63;45.52;101572.66;5030161;28;20643;-91
2023/05/12 09:46:05;;;;;;;4.10;2.53;;;;;;;25.85;45.39;101583.25;5011082;28;20018;-92
2023/05/12 09:48:31;;;;;;;3.80;2.50;;;;;;;25.75;42.72;101595.91;5005386;28;20114;-92
2023/05/12 09:50:56;;;;;;;3.53;2.75;;;;;;;25.19;42.66;101591.13;5028006;28;20101;-92
2023/05/12 09:53:21;;;;;;;4.28;2.22;;;;;;;25.11;44.45;101583.69;5011161;28;20029;-92
2023/05/12 09:55:47;;;;;;;2.60;2.40;;;;;;;24.75;43.16;101604.00;5029204;28;20067;-92
2023/05/12 09:58:17;;;;;;;4.22;2.90;;;;;;;24.15;48.12;101598.38;5029836;28;20033;-91
2023/05/12 10:00:44;;;;;;;4.75;2.67;;;;;;;23.95;47.36;101603.75;5030828;28;20120;-90
2023/05/12 10:03:13;;;;;;;6.78;3.03;;;;;;;23.58;47.80;101596.84;5030406;28;20032;-92
2023/05/12 10:05:48;;;;;;;3.20;2.85;;;;;;;23.33;51.10;101607.97;5010113;28;20098;-93
2023/05/12 10:08:20;;;;;;;4.20;2.90;;;;;;;22.89;46.93;101602.47;5029851;28;20343;-94
2023/05/12 10:10:48;;;;;;;4.40;3.35;;;;;;;22.72;48.13;101602.09;5012745;28;20032;-92
2023/05/12 10:13:13;;;;;;;3.00;2.70;;;;;;;22.59;48.48;101610.28;5009750;28;20021;-93
2023/05/12 10:15:40;;;;;;;4.30;3.10;;;;;;;22.92;47.60;101586.03;5029219;28;20088;-93
2023/05/12 10:18:06;;;;;;;3.42;3.08;;;;;;;23.28;46.90;101602.94;5023043;28;20029;-92
2023/05/12 10:20:32;;;;;;;2.90;2.70;;;;;;;23.31;49.01;101604.50;5031239;28;20029;-94
2023/05/12 10:22:59;;;;;;;3.13;2.83;;;;;;;23.16;48.00;101594.00;5031008;28;20064;-93
2023/05/12 10:25:26;;;;;;;3.25;2.95;;;;;;;23.25;48.16;101599.63;5016406;28;20534;-93
2023/05/12 10:27:54;;;;;;;5.00;2.83;;;;;;;23.16;45.80;101609.31;5029301;28;20026;-92
2023/05/12 10:30:20;;;;;;;3.03;2.67;;;;;;;23.38;46.83;101606.59;5016368;28;20039;-93
2023/05/12 10:32:45;;;;;;;3.53;2.50;;;;;;;23.91;45.91;101598.59;5026982;28;20094;-93
2023/05/12 10:35:12;;;;;;;3.60;2.25;;;;;;;24.27;44.58;101607.25;5028211;28;20092;-93
2023/05/12 10:37:38;;;;;;;3.30;2.80;;;;;;;24.03;45.90;101612.91;5026940;28;20263;-94
2023/05/12 10:40:05;;;;;;;3.28;2.70;;;;;;;23.80;46.80;101608.59;5012442;28;20045;-92
2023/05/12 10:42:41;;;;;;;4.07;2.70;;;;;;;24.02;48.02;101608.50;5033510;28;20021;-94
2023/05/12 10:45:17;;;;;;;3.53;2.88;;;;;;;24.16;46.12;101619.00;5033480;28;20653;-93
2023/05/12 10:47:43;;;;;;;4.68;2.95;;;;;;;24.63;45.41;101618.63;5016751;28;20026;-94
2023/05/12 10:50:12;;;;;;;3.58;2.90;;;;;;;24.64;42.83;101615.75;5011180;28;20049;-93
2023/05/12 10:52:38;;;;;;;7.53;3.40;;;;;;;24.17;44.66;101609.03;5014844;28;20033;-94
2023/05/12 10:55:09;;;;;;;4.43;3.50;;;;;;;23.95;44.86;101615.41;5011637;28;20029;-94
2023/05/12 10:57:47;;;;;;;3.40;3.10;;;;;;;23.80;44.81;101609.44;5011022;28;20037;-92
2023/05/12 11:00:13;;;;;;;4.55;3.10;;;;;;;23.86;45.62;101617.03;5008073;28;20043;-92
2023/05/12 11:02:48;;;;;;;3.50;3.20;;;;;;;24.11;46.41;101623.94;5011845;28;20533;-94
2023/05/12 11:05:14;;;;;;;3.97;3.35;;;;;;;23.94;46.81;101616.38;5007669;28;20488;-92
2023/05/12 11:07:45;;;;;;;3.65;3.17;;;;;;;23.66;46.88;101620.53;5009294;28;20078;-92
2023/05/12 11:10:10;;;;;;;6.28;3.35;;;;;;;23.26;45.67;101622.91;5008750;28;20081;-93
2023/05/12 11:12:36;;;;;;;5.97;3.45;;;;;;;23.07;46.31;101623.56;5009869;28;20444;-93
2023/05/12 11:15:03;;;;;;;4.20;3.78;;;;;;;23.07;47.67;101635.19;5009917;28;20038;-92